ADDS METAR Data INFO
IDs: Format: Raw Decoded Include TAF

Data at: 1050 UTC 19 Oct 2017

PAOU 191032Z AUTO 30023G33KT 8SM FEW013 SCT018 BKN024 04/02 A2977 RMK AO2 PK WND 28034/1010 RAE08 P0000
PAOU 191024Z AUTO 28027G33KT 9SM SCT021 SCT026 BKN032 04/01 A2977 RMK AO2 PK WND 28034/1010 RAE08 P0000
PAOU 190956Z AUTO 29022G31KT 7SM -RA BKN020 OVC028 03/01 A2978 RMK AO2 PK WND 29037/0917 RAB20E30B50UPB30E32 SLP083 P0000 T00330011
PAOU 190938Z AUTO 28028G34KT 9SM FEW018 BKN025 BKN036 04/01 A2978 RMK AO2 PK WND 29037/0917 RAB20E30UPB30E32 P0000
PAOU 190856Z AUTO 28027G35KT 9SM FEW017 SCT039 BKN050 04/01 A2978 RMK AO2 PK WND 29035/0851 SLP085 60002 T00390006 400610039 53006
PAOU 190806Z AUTO 29022G31KT 9SM SCT028 BKN036 05/01 A2977 RMK AO2 PK WND 28031/0802
PAOU 190756Z AUTO 28025G31KT 10SM FEW020 BKN028 05/01 A2977 RMK AO2 PK WND 29034/0704 SLP081 T00500006
PAOU 190732Z AUTO 30024G33KT 8SM FEW012 SCT020 BKN026 04/02 A2977 RMK AO2 PK WND 29034/0704
PAOU 190656Z AUTO 28025G29KT 9SM FEW022 SCT027 BKN048 04/01 A2977 RMK AO2 PK WND 29036/0618 RAE38 SLP080 P0002 T00440006
PAOU 190648Z AUTO 29024G30KT 9SM FEW014 BKN025 04/01 A2977 RMK AO2 PK WND 29036/0618 RAE38 P0002
PAOU 190637Z AUTO 28021G27KT 10SM -RA FEW014 SCT022 SCT036 04/02 A2977 RMK AO2 PK WND 29036/0618 P0001
PAOU 190627Z AUTO 28022G36KT 5SM -RA BR FEW015 SCT020 BKN026 04/02 A2977 RMK AO2 PK WND 29036/0618 P0001
PAOU 190618Z AUTO 29029G36KT 10SM -RA FEW020 SCT025 BKN030 04/02 A2977 RMK AO2 PK WND 29036/0618 P0000
PAOU 190603Z AUTO 30022KT 8SM -RA BKN026 OVC037 04/02 A2976 RMK AO2 PK WND 30026/0602 P0000
PAOU 190556Z AUTO 30022G31KT 7SM -RA SCT024 BKN033 BKN045 04/01 A2976 RMK AO2 PK WND 30031/0550 RAB45 SLP078 P0000 60001 T00390006 10056 20039 51010
PAOU 190538Z AUTO 28023G28KT 10SM SCT025 SCT032 BKN039 05/01 A2976 RMK AO2 PK WND 29030/0514
PAOU 190456Z AUTO 29021G28KT 9SM BKN022 BKN027 04/02 A2976 RMK AO2 PK WND 30032/0430 RAB29E45 SLP078 P0000 T00440017
PAOU 190436Z AUTO 29019G32KT 10SM -RA SCT020 BKN028 BKN035 04/01 A2976 RMK AO2 PK WND 30032/0430 RAB29 P0000
PAOU 190405Z AUTO 28027G30KT 9SM SCT026 SCT030 BKN038 05/01 A2974 RMK AO2 PK WND 29030/0405
PAOU 190356Z AUTO 29027G32KT 10SM BKN024 BKN031 BKN038 05/01 A2974 RMK AO2 PK WND 29033/0315 SLP072 P0001 T00500011
PAOU 190335Z AUTO 29023G29KT 9SM BKN024 05/01 A2974 RMK AO2 PK WND 29033/0315
PAOU 190309Z AUTO 28026G31KT 10SM SCT020 04/01 A2974 RMK AO2 PK WND 29031/0303
PAOU 190256Z AUTO 28027G30KT 9SM BKN020 BKN025 05/02 A2973 RMK AO2 PK WND 27031/0223 RAB36E48 SLP068 P0000 60000 T00500017 53002
PAOU 190237Z AUTO 28024G30KT 7SM -RA FEW016 SCT024 SCT038 04/02 A2973 RMK AO2 PK WND 27031/0223 RAB36 P0000
PAOU 190216Z AUTO 28023G27KT 7SM FEW013 BKN024 04/02 A2973 RMK AO2 PK WND 29029/0203
PAOU 190156Z AUTO 27024G28KT 10SM FEW026 SCT050 05/01 A2973 RMK AO2 PK WND 29033/0140 SLP066 T00500006
PAOU 190147Z AUTO 27026G33KT 10SM SCT026 SCT034 BKN055 05/01 A2973 RMK AO2 PK WND 29033/0140
PAOU 190119Z AUTO 28022G26KT 10SM BKN022 BKN027 BKN043 06/02 A2973 RMK AO2 PK WND 28029/0105
PAOU 190056Z AUTO 28023KT 10SM SCT020 06/01 A2973 RMK AO2 PK WND 29029/0035 SLP066 T00560011
PAOU 190051Z AUTO 28023G28KT 10SM SCT020 06/02 A2973 RMK AO2 PK WND 29029/0035
PAOU 190032Z AUTO 29022KT 9SM BKN020 06/02 A2973 RMK AO2 PK WND 30027/0008
PAOU 182356Z AUTO 29021G30KT 9SM FEW014 SCT028 BKN033 06/02 A2973 RMK AO2 PK WND 29031/2346 SLP068 60000 T00560022 10061 20039 58002
PAOU 182306Z AUTO 28024G31KT 10SM BKN025 06/01 A2974 RMK AO2 PK WND 28031/2304
PAOU 182256Z AUTO 29022G29KT 10SM SCT023 06/02 A2974 RMK AO2 PK WND 28030/2237 SLP070 T00560017
PAOU 182247Z AUTO 28024KT 10SM SCT023 06/02 A2974 RMK AO2 PK WND 28030/2237
PAOU 182156Z AUTO 28023G28KT 10SM SCT018 BKN025 BKN034 05/02 A2974 RMK AO2 PK WND 30028/2152 SLP070 T00500022
PAOU 182152Z AUTO 29024G28KT 10SM SCT018 SCT025 BKN050 05/02 A2974 RMK AO2 PK WND 30028/2152
PAOU 182137Z AUTO 31019G26KT 10SM BKN018 BKN024 04/02 A2974 RMK AO2 PK WND 30026/2130
PAOU 182130Z AUTO 29021G26KT 9SM SCT018 06/03 A2974 RMK AO2 PK WND 30026/2130
PAOU 182121Z AUTO 29019KT 10SM BKN018 06/02 A2974 RMK AO2
PAOU 182056Z AUTO 30022G25KT 9SM SCT015 05/02 A2973 RMK AO2 PK WND 30029/2015 RAB17E28 SLP069 P0000 60000 T00500022 51015
PAOU 181956Z AUTO 30022G29KT 10SM SCT018 SCT023 BKN046 05/02 A2973 RMK AO2 PK WND 31030/1934 SLP067 T00500022
PAOU 181949Z AUTO 30023G27KT 9SM FEW017 BKN022 BKN048 05/02 A2973 RMK AO2 PK WND 31030/1934
PAOU 181939Z AUTO 31020G30KT 8SM FEW018 SCT022 BKN032 05/02 A2972 RMK AO2 PK WND 31030/1934
PAOU 181928Z AUTO 29019G27KT 9SM SCT020 BKN027 BKN039 06/02 A2972 RMK AO2 PK WND 29028/1918
PAOU 181921Z AUTO 30022G28KT 9SM SCT020 BKN035 BKN042 05/02 A2972 RMK AO2 PK WND 29028/1918
PAOU 181856Z AUTO 29023G27KT 8SM SCT018 BKN025 BKN035 05/02 A2971 RMK AO2 PK WND 31030/1759 RAB15E41 SLP061 P0000 T00500022
PAOU 181756Z AUTO 30021KT 9SM BKN020 BKN028 BKN036 05/02 A2969 RMK AO2 PK WND 30028/1703 SLP054 60004 T00500022 10056 20039 51013
PAOU 181739Z AUTO 29024G27KT 8SM BKN020 05/02 A2969 RMK AO2 PK WND 30028/1703
PAOU 181703Z AUTO 30025KT 9SM SCT020 05/02 A2968 RMK AO2 PK WND 30028/1703
PAOU 181656Z AUTO 30022G28KT 9SM SCT020 BKN025 05/02 A2968 RMK AO2 PK WND 30030/1604 RAE12 SLP049 P0001 T00500022
PAOU 181648Z AUTO 30024G28KT 9SM SCT022 05/02 A2967 RMK AO2 PK WND 30030/1604 RAE12 P0001
PAOU 181556Z AUTO 30021G28KT 5SM -RA BR BKN018 OVC025 04/02 A2967 RMK AO2 PK WND 32033/1544 RAB32 SLP046 P0003 T00390022
PAOU 181527Z AUTO 33029G32KT 8SM FEW010 SCT022 BKN028 04/02 A2966 RMK AO2 PK WND 32032/1523 P0001
PAOU 181456Z AUTO 31022G27KT 10SM SCT020 SCT029 BKN042 05/02 A2965 RMK AO2 PK WND 30032/1437 RAB38E54 SLP040 P0000 60000 T00500022 51012
PAOU 181441Z AUTO 31022G32KT 5SM -RA BR FEW014 BKN028 OVC040 04/02 A2966 RMK AO2 PK WND 30032/1437 RAB38 P0000
PAOU 181416Z AUTO 31024G30KT 10SM BKN031 BKN040 06/01 A2964 RMK AO2 PK WND 31031/1405
PAOU 181356Z AUTO 30026G30KT 10SM BKN029 BKN033 06/01 A2964 RMK AO2 PK WND 31032/1303 SLP038 T00560006
PAOU 181340Z AUTO 31022G30KT 10SM BKN029 BKN034 06/01 A2964 RMK AO2 PK WND 31032/1303
PAOU 181256Z AUTO 31023G29KT 10SM FEW028 SCT037 05/01 A2963 RMK AO2 PK WND 31035/1200 RAB08E35 SLP034 P0000 T00500011
PAOU 181241Z AUTO 31027G32KT 10SM FEW021 SCT033 SCT040 05/01 A2963 RMK AO2 PK WND 31035/1200 RAB08E35 P0000
PAOU 181230Z AUTO 31026G31KT 8SM -RA FEW019 SCT025 BKN029 04/02 A2963 RMK AO2 PK WND 31035/1200 RAB08 P0000
PAOU 181221Z AUTO 31022G31KT 10SM FEW017 SCT028 BKN034 04/02 A2962 RMK AO2 PK WND 31035/1200 RAB08E20 P0000
PAOU 181207Z AUTO 30027G35KT 8SM FEW017 BKN026 BKN034 04/02 A2963 RMK AO2 PK WND 31035/1200
PAOU 181156Z AUTO 31025G29KT 10SM FEW017 SCT024 BKN032 05/01 A2962 RMK AO2 PK WND 31036/1111 RAB36E47 SLP028 P0000 60000 70002 T00500011 10061 20039 51015
PAOU 181140Z AUTO 30020G34KT 8SM -RA FEW019 SCT024 BKN029 04/01 A2962 RMK AO2 PK WND 31036/1111 RAB36 P0000
PAOU 181056Z AUTO 32020G30KT 10SM SCT028 BKN034 06/01 A2961 RMK AO2 PK WND 31033/1040 SLP027 T00560011
PAOU 180956Z AUTO 30027G31KT 10SM BKN033 06/00 A2959 RMK AO2 PK WND 31032/0936 SLP022 T00560000
PAOU 180943Z AUTO 32025G32KT 10SM BKN031 06/01 A2959 RMK AO2 PK WND 31032/0936
PAOU 180913Z AUTO 32023G30KT 10SM BKN029 OVC034 06/01 A2958 RMK AO2 PK WND 32030/0911
PAOU 180856Z AUTO 32021G27KT 10SM OVC032 06/01 A2957 RMK AO2 PK WND 32032/0840 SLP014 T00560011 400780044 53023
PAOU 180837Z AUTO 32023G30KT 10SM BKN030 OVC036 06/00 A2957 RMK AO2 PK WND 32032/0818
PAOU 180805Z AUTO 31021G30KT 10SM BKN029 OVC038 06/01 A2955 RMK AO2 PK WND 31030/0757
PAOU 180756Z AUTO 32023G28KT 10SM OVC031 06/01 A2955 RMK AO2 PK WND 32028/0752 SLP007 T00560011
PAOU 180732Z AUTO 32022KT 10SM OVC031 06/01 A2954 RMK AO2 PK WND 31028/0714
PAOU 180722Z AUTO 32024G28KT 10SM BKN029 OVC035 06/01 A2953 RMK AO2 PK WND 31028/0714
PAOU 180656Z AUTO 31022G27KT 10SM SCT028 BKN035 06/01 A2952 RMK AO2 PK WND 33032/0623 SLP996 T00610011
PAOU 180556Z AUTO 32023G27KT 10SM SCT024 OVC031 06/02 A2950 RMK AO2 PK WND 32028/0543 SLP990 T00610022 10072 20056 51043
PAOU 180456Z AUTO 32021G28KT 10SM SCT023 OVC029 06/02 A2948 RMK AO2 PK WND 33029/0402 SLP982 T00610017
PAOU 180356Z AUTO 34023G30KT 8SM OVC022 06/02 A2943 RMK AO2 PK WND 34031/0341 SLP967 T00560022
PAOU 180256Z AUTO 34024G28KT 7SM OVC018 06/03 A2937 RMK AO2 PK WND 35031/0211 SLP947 T00610028 51062
PAOU 180156Z AUTO 36024G32KT 8SM SCT020 BKN025 OVC055 06/03 A2932 RMK AO2 PK WND 35036/0107 SLP927 T00610033
PAOU 180056Z AUTO 36026G34KT 5SM HZ BKN020 OVC028 06/03 A2926 RMK AO2 PK WND 36038/2357 PRESRR SLP908 T00610033
PAOU 180028Z AUTO 01027G36KT 7SM BKN025 BKN033 BKN065 07/03 A2923 RMK AO2 PK WND 36038/2357 PRESRR
PAOU 180018Z AUTO 01031G37KT 8SM SCT023 BKN033 BKN070 07/03 A2922 RMK AO2 PK WND 36038/2357
PAOU 172356Z AUTO 36030G37KT 8SM BKN023 OVC075 07/03 A2919 RMK AO2 PK WND 01040/2314 SLP885 T00720033 10078 20061 53058
PAOU 172256Z AUTO 01033G38KT 8SM BKN019 OVC075 07/04 A2913 RMK AO2 PK WND 36040/2221 SLP863 T00720044